createdAt,value
2018-12-04T00:01:10.995Z,99778.00
2018-12-04T00:03:14.087Z,99779.00
2018-12-04T00:05:17.133Z,99773.00
2018-12-04T00:07:20.106Z,99771.00
2018-12-04T00:09:23.116Z,99778.00
2018-12-04T00:11:26.163Z,99779.00
2018-12-04T00:13:29.147Z,99782.00
2018-12-04T00:15:32.123Z,99781.00
2018-12-04T00:17:35.134Z,99776.00
2018-12-04T00:19:38.160Z,99781.00
2018-12-04T00:21:41.139Z,99781.00
2018-12-04T00:23:44.239Z,99784.00
2018-12-04T00:25:47.366Z,99790.00
2018-12-04T00:27:50.355Z,99789.00
2018-12-04T00:29:53.327Z,99789.00
2018-12-04T00:31:56.303Z,99786.00
2018-12-04T00:33:59.316Z,99787.00
2018-12-04T00:36:02.295Z,99793.00
2018-12-04T00:38:05.259Z,99793.00
2018-12-04T00:40:08.891Z,99803.00
2018-12-04T00:42:11.834Z,99806.00
2018-12-04T00:44:15.150Z,99802.00
2018-12-04T00:46:18.087Z,99804.00
2018-12-04T00:48:20.999Z,99803.00
2018-12-04T00:50:23.988Z,99808.00
2018-12-04T00:52:26.943Z,99815.00
2018-12-04T00:54:29.918Z,99814.00
2018-12-04T00:56:32.907Z,99820.00
2018-12-04T00:58:35.896Z,99818.00
2018-12-04T01:00:38.868Z,99826.00
2018-12-04T01:02:42.030Z,99819.00
2018-12-04T01:04:45.147Z,99822.00
2018-12-04T01:06:48.204Z,99825.00
2018-12-04T01:08:51.187Z,99820.00
2018-12-04T01:10:54.173Z,99829.00
2018-12-04T01:12:57.259Z,99826.00
2018-12-04T01:15:00.314Z,99831.00
2018-12-04T01:17:03.387Z,99827.00
2018-12-04T01:19:06.501Z,99831.00
2018-12-04T01:21:09.571Z,99833.00
2018-12-04T01:23:12.583Z,99835.00
2018-12-04T01:25:15.641Z,99836.00
2018-12-04T01:27:18.727Z,99832.00
2018-12-04T01:29:21.846Z,99833.00
2018-12-04T01:31:24.949Z,99838.00
2018-12-04T01:33:28.095Z,99837.00
2018-12-04T01:35:31.220Z,99834.00
2018-12-04T01:37:34.242Z,99843.00
2018-12-04T01:39:37.317Z,99849.00
2018-12-04T01:41:40.382Z,99848.00
2018-12-04T01:43:43.353Z,99851.00
2018-12-04T01:45:46.537Z,99850.00
2018-12-04T01:47:49.756Z,99850.00
2018-12-04T01:49:52.825Z,99850.00
2018-12-04T01:51:55.907Z,99853.00
2018-12-04T01:53:59.042Z,99852.00
2018-12-04T01:56:02.251Z,99856.00
2018-12-04T01:58:05.405Z,99855.00
2018-12-04T02:00:08.684Z,99851.00
2018-12-04T02:02:11.959Z,99854.00
2018-12-04T02:04:15.159Z,99849.00
2018-12-04T02:06:18.339Z,99858.00
2018-12-04T02:08:21.432Z,99860.00
2018-12-04T02:10:24.520Z,99860.00
2018-12-04T02:12:27.642Z,99867.00
2018-12-04T02:14:30.743Z,99865.00
2018-12-04T02:16:33.996Z,99870.00
2018-12-04T02:18:37.205Z,99870.00
2018-12-04T02:20:40.359Z,99871.00
2018-12-04T02:22:43.583Z,99876.00
2018-12-04T02:24:46.731Z,99877.00
2018-12-04T02:26:50.035Z,99885.00
2018-12-04T02:28:53.280Z,99884.00
2018-12-04T02:30:56.424Z,99884.00
2018-12-04T02:32:59.572Z,99892.00
2018-12-04T02:35:02.739Z,99890.00
2018-12-04T02:37:05.857Z,99893.00
2018-12-04T02:39:09.038Z,99894.00
2018-12-04T02:41:12.155Z,99890.00
2018-12-04T02:43:15.248Z,99896.00
2018-12-04T02:45:18.465Z,99904.00
2018-12-04T02:47:21.621Z,99911.00
2018-12-04T02:49:24.675Z,99915.00
2018-12-04T02:51:27.788Z,99915.00
2018-12-04T02:53:30.846Z,99921.00
2018-12-04T02:55:33.949Z,99925.00
2018-12-04T02:57:37.169Z,99928.00
2018-12-04T02:59:40.306Z,99935.00
2018-12-04T03:01:43.460Z,99942.00
2018-12-04T03:03:46.790Z,99947.00
2018-12-04T03:05:49.913Z,99951.00
2018-12-04T03:07:53.178Z,99940.00
2018-12-04T03:09:56.419Z,99954.00
2018-12-04T03:11:59.599Z,99951.00
2018-12-04T03:14:02.762Z,99958.00
2018-12-04T03:16:05.967Z,99954.00
2018-12-04T03:18:09.185Z,99964.00
2018-12-04T03:20:12.373Z,99970.00
2018-12-04T03:22:15.540Z,99971.00
2018-12-04T03:24:18.572Z,99978.00
2018-12-04T03:26:21.670Z,100006.00
2018-12-04T03:28:24.838Z,100007.00
2018-12-04T03:30:27.917Z,100022.00
2018-12-04T03:32:31.062Z,100035.00
2018-12-04T03:34:34.503Z,100040.00
2018-12-04T03:36:37.654Z,100046.00
2018-12-04T03:38:40.834Z,100062.00
2018-12-04T03:40:44.000Z,100066.00
2018-12-04T03:42:47.128Z,100070.00
2018-12-04T03:44:50.197Z,100087.00
2018-12-04T03:46:53.342Z,100104.00
2018-12-04T03:48:56.392Z,100095.00
2018-12-04T03:50:59.602Z,100102.00
2018-12-04T03:53:02.799Z,100107.00
2018-12-04T03:55:05.987Z,100117.00
2018-12-04T03:57:09.067Z,100132.00
2018-12-04T03:59:12.154Z,100139.00
2018-12-04T04:01:15.551Z,100145.00
2018-12-04T04:03:18.670Z,100145.00
2018-12-04T04:05:21.847Z,100144.00
2018-12-04T04:07:24.987Z,100154.00
2018-12-04T04:09:28.067Z,100160.00
2018-12-04T04:11:31.146Z,100166.00
2018-12-04T04:13:34.235Z,100173.00
2018-12-04T04:15:37.413Z,100185.00
2018-12-04T04:17:40.729Z,100193.00
2018-12-04T04:19:43.827Z,100194.00
2018-12-04T04:21:46.904Z,100206.00
2018-12-04T04:23:50.076Z,100214.00
2018-12-04T04:25:53.301Z,100212.00
2018-12-04T04:27:56.393Z,100217.00
2018-12-04T04:29:59.569Z,100214.00
2018-12-04T04:32:02.724Z,100220.00
2018-12-04T04:34:05.853Z,100229.00
2018-12-04T04:36:09.341Z,100232.00
2018-12-04T04:38:12.396Z,100228.00
2018-12-04T04:40:15.497Z,100240.00
2018-12-04T04:42:18.830Z,100244.00
2018-12-04T04:44:21.946Z,100248.00
2018-12-04T04:46:25.094Z,100256.00
2018-12-04T04:48:28.561Z,100256.00
2018-12-04T04:50:31.645Z,100258.00
2018-12-04T04:52:34.875Z,100264.00
2018-12-04T04:54:38.013Z,100271.00
2018-12-04T04:56:41.182Z,100280.00
2018-12-04T04:58:44.401Z,100279.00
2018-12-04T05:00:47.648Z,100295.00
2018-12-04T05:02:51.777Z,100303.00
2018-12-04T05:04:55.079Z,100312.00
2018-12-04T05:06:58.391Z,100327.00
2018-12-04T05:09:05.007Z,100328.00
2018-12-04T05:11:08.747Z,100338.00
2018-12-04T05:13:12.012Z,100340.00
2018-12-04T05:15:15.169Z,100340.00
2018-12-04T05:17:18.546Z,100350.00
2018-12-04T05:19:21.701Z,100358.00
2018-12-04T05:21:24.855Z,100357.00
2018-12-04T05:23:28.349Z,100366.00
2018-12-04T05:25:31.424Z,100372.00
2018-12-04T05:27:34.533Z,100377.00
2018-12-04T05:29:37.655Z,100380.00
2018-12-04T05:31:40.842Z,100388.00
2018-12-04T05:33:43.992Z,100392.00
2018-12-04T05:36:53.169Z,100392.68
2018-12-04T05:39:07.538Z,100396.30
2018-12-04T05:41:15.320Z,100396.86
2018-12-04T05:43:32.312Z,100404.62
2018-12-04T05:45:46.669Z,100411.23
2018-12-04T05:47:54.648Z,100410.33
2018-12-04T05:50:06.934Z,100406.30
2018-12-04T05:52:14.276Z,100424.20
2018-12-04T05:54:23.000Z,100429.47
2018-12-04T05:56:35.344Z,100439.17
2018-12-04T05:58:45.685Z,100442.25
2018-12-04T06:00:53.487Z,100445.92
2018-12-04T06:03:01.088Z,100430.81
2018-12-04T06:05:10.767Z,100465.92
2018-12-04T06:07:19.100Z,100482.09
2018-12-04T06:09:27.416Z,100479.27
2018-12-04T06:11:35.989Z,100484.41
2018-12-04T06:13:48.140Z,100494.72
2018-12-04T06:15:56.385Z,100498.34
2018-12-04T06:18:03.987Z,100511.20
2018-12-04T06:20:12.120Z,100511.46
2018-12-04T06:22:19.493Z,100522.36
2018-12-04T06:24:27.219Z,100532.64
2018-12-04T06:26:35.168Z,100535.23
2018-12-04T06:28:42.591Z,100543.23
2018-12-04T06:30:50.910Z,100548.17
2018-12-04T06:32:59.533Z,100555.17
2018-12-04T06:35:07.855Z,100548.95
2018-12-04T06:37:16.470Z,100561.34
2018-12-04T06:39:24.002Z,100569.20
2018-12-04T06:41:31.423Z,100571.03
2018-12-04T06:43:38.940Z,100581.73
2018-12-04T06:45:44.364Z,100587.70
2018-12-04T06:47:52.561Z,100598.28
2018-12-04T06:50:00.096Z,100604.04
2018-12-04T06:52:07.540Z,100618.52
2018-12-04T06:54:15.125Z,100626.47
2018-12-04T06:56:22.589Z,100633.13
2018-12-04T06:58:30.939Z,100641.89
2018-12-04T07:00:38.495Z,100646.47
2018-12-04T07:02:46.973Z,100656.67
2018-12-04T07:04:54.287Z,100662.25
2018-12-04T07:07:01.668Z,100675.19
2018-12-04T07:09:09.944Z,100666.25
2018-12-04T07:11:17.396Z,100674.11
2018-12-04T07:13:24.759Z,100672.55
2018-12-04T07:15:40.321Z,100690.91
2018-12-04T07:17:55.301Z,100700.45
2018-12-04T07:20:04.108Z,100703.37
2018-12-04T07:22:12.379Z,100718.41
2018-12-04T07:24:19.778Z,100720.27
2018-12-04T07:26:27.341Z,100718.66
2018-12-04T07:28:34.796Z,100721.61
2018-12-04T07:30:42.159Z,100732.91
2018-12-04T07:32:50.632Z,100725.75
2018-12-04T07:35:02.947Z,100735.69
2018-12-04T07:37:10.478Z,100745.70
2018-12-04T07:39:18.952Z,100758.55
2018-12-04T07:41:26.388Z,100771.23
2018-12-04T07:43:33.911Z,100773.17
2018-12-04T07:45:41.597Z,100778.21
2018-12-04T07:47:49.027Z,100784.50
2018-12-04T07:49:57.200Z,100787.53
2018-12-04T07:52:05.507Z,100791.46
2018-12-04T07:54:20.084Z,100801.18
2018-12-04T07:56:31.287Z,100811.63
2018-12-04T07:58:38.944Z,100812.29
2018-12-04T08:00:47.155Z,100821.95
2018-12-04T08:02:54.695Z,100826.02
2018-12-04T08:05:02.256Z,100833.42
2018-12-04T08:07:10.389Z,100841.55
2018-12-04T08:09:17.793Z,100845.84
2018-12-04T08:11:25.167Z,100853.48
2018-12-04T08:13:32.882Z,100861.30
2018-12-04T08:15:41.012Z,100873.89
2018-12-04T08:17:50.312Z,100875.25
2018-12-04T08:19:57.816Z,100877.53
2018-12-04T08:22:05.328Z,100880.08
2018-12-04T08:24:24.172Z,100887.73
2018-12-04T08:26:32.162Z,100896.61
2018-12-04T08:28:33.590Z,100893.13
2018-12-04T08:30:41.623Z,100894.55
2018-12-04T08:32:50.161Z,100897.13
2018-12-04T08:34:59.592Z,100916.48
2018-12-04T08:37:07.205Z,100917.75
2018-12-04T08:39:15.384Z,100914.83
2018-12-04T08:41:29.757Z,100922.70
2018-12-04T08:43:37.452Z,100926.58
2018-12-04T08:45:45.628Z,100936.95
2018-12-04T08:47:53.844Z,100946.28
2018-12-04T08:50:01.190Z,100946.60
2018-12-04T08:52:08.792Z,100942.82
2018-12-04T08:54:16.172Z,100955.75
2018-12-04T08:56:23.672Z,100960.02
2018-12-04T08:58:31.013Z,100965.95
2018-12-04T09:00:38.336Z,100977.20
2018-12-04T09:02:45.710Z,100983.02
2018-12-04T09:04:53.004Z,100989.73
2018-12-04T09:07:01.455Z,100994.45
2018-12-04T09:09:08.913Z,101000.89
2018-12-04T09:11:16.549Z,100980.73
2018-12-04T09:13:23.993Z,101016.56
2018-12-04T09:15:31.490Z,101010.14
2018-12-04T09:17:39.080Z,101015.47
2018-12-04T09:19:46.771Z,101013.95
2018-12-04T09:21:55.039Z,101013.55
2018-12-04T09:24:02.516Z,101020.02
2018-12-04T09:26:10.757Z,101016.23
2018-12-04T09:28:19.045Z,101018.53
2018-12-04T09:30:27.433Z,101017.72
2018-12-04T09:32:34.935Z,101021.36
2018-12-04T09:34:42.322Z,101030.17
2018-12-04T09:36:49.867Z,101031.48
2018-12-04T09:38:57.948Z,101043.16
2018-12-04T09:41:05.435Z,101035.80
2018-12-04T09:43:12.829Z,101040.65
2018-12-04T09:45:20.152Z,101045.81
2018-12-04T09:47:31.575Z,101048.89
2018-12-04T09:49:38.932Z,101052.16
2018-12-04T09:51:46.304Z,101059.41
2018-12-04T09:53:53.839Z,101063.24
2018-12-04T09:56:01.307Z,101066.44
2018-12-04T09:58:08.609Z,101066.27
2018-12-04T10:00:16.279Z,101068.72
2018-12-04T10:02:23.644Z,101071.68
2018-12-04T10:04:31.061Z,101070.12
2018-12-04T10:06:39.524Z,101078.97
2018-12-04T10:08:48.215Z,101074.36
2018-12-04T10:10:55.941Z,101065.97
2018-12-04T10:13:03.556Z,101081.48
2018-12-04T10:15:11.497Z,101085.50
2018-12-04T10:17:18.992Z,101089.45
2018-12-04T10:19:27.611Z,101090.36
2018-12-04T10:21:35.972Z,101087.60
2018-12-04T10:23:44.722Z,101093.09
2018-12-04T10:25:53.447Z,101096.73
2018-12-04T10:28:00.697Z,101097.82
2018-12-04T10:30:08.603Z,101098.66
2018-12-04T10:32:19.817Z,101102.06
2018-12-04T10:34:28.403Z,101106.52
2018-12-04T10:36:33.419Z,101114.45
2018-12-04T10:38:37.824Z,101109.34
2018-12-04T10:40:45.318Z,101112.81
2018-12-04T10:42:49.887Z,101117.34
2018-12-04T10:44:57.339Z,101129.84
2018-12-04T10:47:04.680Z,101131.11
2018-12-04T10:49:19.128Z,101126.47
2018-12-04T10:51:28.619Z,101129.27
2018-12-04T10:53:35.940Z,101131.17
2018-12-04T10:55:43.388Z,101142.50
2018-12-04T10:57:50.973Z,101143.48
2018-12-04T10:59:59.069Z,101152.48
2018-12-04T11:02:12.707Z,101152.09
2018-12-04T11:04:27.864Z,101145.44
2018-12-04T11:06:35.264Z,101149.72
2018-12-04T11:08:39.838Z,101157.65
2018-12-04T11:10:51.095Z,101161.86
2018-12-04T11:13:00.478Z,101164.19
2018-12-04T11:15:15.100Z,101165.20
2018-12-04T11:17:22.956Z,101176.55
2018-12-04T11:19:30.384Z,101177.22
2018-12-04T11:21:37.955Z,101178.52
2018-12-04T11:23:46.411Z,101179.48
2018-12-04T11:25:53.846Z,101178.68
2018-12-04T11:28:01.510Z,101184.52
2018-12-04T11:30:09.154Z,101193.16
2018-12-04T11:32:23.880Z,101190.88
2018-12-04T11:34:32.434Z,101204.53
2018-12-04T11:36:39.847Z,101203.76
2018-12-04T11:38:47.302Z,101212.42
2018-12-04T11:40:54.681Z,101212.33
2018-12-04T11:43:03.408Z,101211.93
2018-12-04T11:45:11.044Z,101225.73
2018-12-04T11:47:19.742Z,101223.05
2018-12-04T11:49:28.131Z,101226.33
2018-12-04T11:51:29.532Z,101225.93
2018-12-04T11:53:37.192Z,101236.03
2018-12-04T11:55:38.552Z,101234.06
2018-12-04T11:57:50.403Z,101243.58
2018-12-04T12:06:12.180Z,101256.04
2018-12-04T12:14:34.520Z,101260.20
2018-12-04T12:16:42.093Z,101272.27
2018-12-04T12:18:52.748Z,101268.94
2018-12-04T12:21:00.240Z,101268.91
2018-12-04T12:23:07.821Z,101267.44
2018-12-04T12:25:15.447Z,101273.20
2018-12-04T12:27:23.070Z,101275.11
2018-12-04T12:29:32.065Z,101281.15
2018-12-04T12:31:39.664Z,101276.50
2018-12-04T12:33:47.423Z,101292.41
2018-12-04T12:35:54.919Z,101298.23
2018-12-04T12:38:02.368Z,101300.94
2018-12-04T12:40:07.386Z,101267.61
2018-12-04T12:42:14.795Z,101311.74
2018-12-04T12:44:22.265Z,101316.73
2018-12-04T12:46:29.727Z,101316.41
2018-12-04T12:48:37.343Z,101325.13
2018-12-04T12:50:46.614Z,101322.89
2018-12-04T12:52:54.120Z,101329.67
2018-12-04T12:55:01.612Z,101335.11
2018-12-04T12:57:09.068Z,101323.20
2018-12-04T12:59:16.472Z,101344.12
2018-12-04T13:01:24.123Z,101345.19
2018-12-04T13:03:32.441Z,101344.45
2018-12-04T13:05:40.060Z,101334.54
2018-12-04T13:07:47.479Z,101343.69
2018-12-04T13:09:54.786Z,101341.16
2018-12-04T13:12:02.600Z,101343.55
2018-12-04T13:14:09.888Z,101348.55
2018-12-04T13:18:21.237Z,101357.72
2018-12-04T13:22:34.226Z,101356.05
2018-12-04T13:26:42.287Z,101361.63
2018-12-04T13:30:53.170Z,101366.28
2018-12-04T13:37:11.111Z,101386.44
2018-12-04T13:39:18.812Z,101382.27
2018-12-04T13:41:26.385Z,101382.96
2018-12-04T13:43:31.591Z,101390.86
2018-12-04T13:45:39.501Z,101393.92
2018-12-04T13:47:47.786Z,101398.83
2018-12-04T13:49:55.301Z,101385.55
2018-12-04T13:52:03.336Z,101400.45
2018-12-04T13:54:11.492Z,101407.34
2018-12-04T13:56:19.695Z,101417.15
2018-12-04T13:58:24.322Z,101423.34
2018-12-04T14:00:32.599Z,101431.84
2018-12-04T14:02:40.763Z,101432.58
2018-12-04T14:04:49.431Z,101447.10
2018-12-04T14:06:54.749Z,101450.53
2018-12-04T14:09:04.375Z,101449.95
2018-12-04T14:11:12.765Z,101454.30
2018-12-04T14:13:21.101Z,101458.23
2018-12-04T14:15:35.610Z,101460.70
2018-12-04T14:17:43.132Z,101465.83
2018-12-04T14:19:50.679Z,101468.44
2018-12-04T14:21:58.210Z,101474.85
2018-12-04T14:24:05.701Z,101481.16
2018-12-04T14:26:13.106Z,101477.97
2018-12-04T14:28:21.404Z,101483.62
2018-12-04T14:30:29.754Z,101483.04
2018-12-04T14:32:37.268Z,101491.42
2018-12-04T14:34:44.727Z,101496.88
2018-12-04T14:36:52.246Z,101515.08
2018-12-04T14:39:00.723Z,101510.89
2018-12-04T14:41:09.024Z,101513.31
2018-12-04T14:43:16.695Z,101519.77
2018-12-04T14:45:25.195Z,101528.84
2018-12-04T14:47:30.783Z,101532.53
2018-12-04T14:49:38.860Z,101533.16
2018-12-04T14:51:47.456Z,101537.27
2018-12-04T14:53:55.587Z,101552.01
2018-12-04T14:56:03.424Z,101556.27
2018-12-04T14:58:10.979Z,101565.01
2018-12-04T15:00:19.391Z,101571.61
2018-12-04T15:02:30.778Z,101573.69
2018-12-04T15:04:39.136Z,101571.42
2018-12-04T15:06:44.574Z,101583.53
2018-12-04T15:08:52.833Z,101584.41
2018-12-04T15:11:00.900Z,101595.97
2018-12-04T15:13:09.308Z,101601.41
2018-12-04T15:15:10.840Z,101602.18
2018-12-04T15:17:18.236Z,101602.78
2018-12-04T15:19:26.404Z,101614.32
2018-12-04T15:21:34.164Z,101616.94
2018-12-04T15:23:41.799Z,101622.81
2018-12-04T15:25:49.283Z,101622.66
2018-12-04T15:27:56.674Z,101624.45
2018-12-04T15:30:06.365Z,101625.16
2018-12-04T15:32:14.173Z,101630.34
2018-12-04T15:34:21.696Z,101638.28
2018-12-04T15:36:31.288Z,101634.40
2018-12-04T15:38:38.711Z,101635.41
2018-12-04T15:40:46.417Z,101647.34
2018-12-04T15:42:54.269Z,101653.11
2018-12-04T15:45:01.953Z,101656.81
2018-12-04T15:47:10.312Z,101659.75
2018-12-04T15:49:17.658Z,101663.61
2018-12-04T15:51:25.329Z,101668.33
2018-12-04T15:53:37.014Z,101675.77
2018-12-04T15:55:45.341Z,101681.12
2018-12-04T15:57:54.503Z,101677.69
2018-12-04T16:00:05.048Z,101691.48
2018-12-04T16:02:13.545Z,101692.10
2018-12-04T16:04:20.804Z,101691.52
2018-12-04T16:06:28.337Z,101697.40
2018-12-04T16:08:36.821Z,101695.45
2018-12-04T16:10:44.452Z,101707.67
2018-12-04T16:12:52.359Z,101709.34
2018-12-04T16:15:01.013Z,101716.56
2018-12-04T16:17:14.923Z,101720.48
2018-12-04T16:19:18.979Z,101723.55
2018-12-04T16:21:26.303Z,101729.00
2018-12-04T16:23:34.008Z,101727.73
2018-12-04T16:25:41.664Z,101731.03
2018-12-04T16:27:49.931Z,101739.91
2018-12-04T16:29:57.720Z,101745.27
2018-12-04T16:32:05.939Z,101751.53
2018-12-04T16:34:13.371Z,101757.62
2018-12-04T16:36:20.900Z,101761.74
2018-12-04T16:38:28.495Z,101765.06
2018-12-04T16:40:35.988Z,101763.39
2018-12-04T16:42:43.439Z,101773.06
2018-12-04T16:44:51.893Z,101768.12
2018-12-04T16:46:59.383Z,101780.65
2018-12-04T16:51:10.340Z,101792.45
2018-12-04T16:53:18.088Z,101796.98
2018-12-04T16:59:35.100Z,101815.77
2018-12-04T17:05:51.392Z,101819.02
2018-12-04T17:08:00.705Z,101826.42
2018-12-04T17:10:08.511Z,101802.32
2018-12-04T17:12:16.256Z,101829.76
2018-12-04T17:14:23.875Z,101840.56
2018-12-04T17:16:31.645Z,101838.14
2018-12-04T17:18:39.363Z,101841.25
2018-12-04T17:20:47.181Z,101845.00
2018-12-04T17:22:52.292Z,101849.12
2018-12-04T17:24:59.656Z,101853.68
2018-12-04T17:27:07.352Z,101854.77
2018-12-04T17:29:15.247Z,101861.31
2018-12-04T17:31:22.880Z,101862.79
2018-12-04T17:33:30.780Z,101867.73
2018-12-04T17:35:38.324Z,101870.18
2018-12-04T17:37:45.847Z,101872.48
2018-12-04T17:39:54.136Z,101884.05
2018-12-04T17:42:02.189Z,101876.07
2018-12-04T17:44:09.723Z,101880.49
2018-12-04T17:46:17.327Z,101881.80
2018-12-04T17:48:25.086Z,101878.54
2018-12-04T17:50:32.641Z,101880.82
2018-12-04T17:52:40.418Z,101881.45
2018-12-04T17:54:45.144Z,101886.30
2018-12-04T17:56:53.669Z,101884.21
2018-12-04T17:59:01.083Z,101889.77
2018-12-04T18:01:08.898Z,101894.45
2018-12-04T18:03:16.246Z,101894.63
2018-12-04T18:05:25.788Z,101893.33
2018-12-04T18:11:42.283Z,101901.34
2018-12-04T18:13:49.986Z,101899.06
2018-12-04T18:18:02.987Z,101910.65
2018-12-04T18:22:14.424Z,101930.36
2018-12-04T18:24:22.058Z,101928.73
2018-12-04T18:28:33.325Z,101935.25
2018-12-04T18:32:45.130Z,101941.10
2018-12-04T18:34:52.855Z,101944.86
2018-12-04T18:37:00.588Z,101944.17
2018-12-04T18:39:03.221Z,101947.44
2018-12-04T18:41:13.136Z,101950.87
2018-12-04T18:43:20.512Z,101905.98
2018-12-04T18:45:28.216Z,101916.55
2018-12-04T18:47:32.920Z,101941.75
2018-12-04T18:49:40.811Z,101948.43
2018-12-04T18:51:48.601Z,101946.48
2018-12-04T18:53:56.811Z,101944.70
2018-12-04T18:56:04.586Z,101948.28
2018-12-04T18:58:12.275Z,101952.98
2018-12-04T19:00:20.815Z,101957.70
2018-12-04T19:02:28.212Z,101956.73
2018-12-04T19:04:33.211Z,101958.03
2018-12-04T19:06:41.599Z,101953.65
2018-12-04T19:08:52.114Z,101957.39
2018-12-04T19:11:00.946Z,101951.20
2018-12-04T19:13:08.282Z,101954.93
2018-12-04T19:15:15.892Z,101960.45
2018-12-04T19:17:23.348Z,101966.63
2018-12-04T19:19:30.837Z,101970.54
2018-12-04T19:21:38.489Z,101976.08
2018-12-04T19:23:45.956Z,101973.30
2018-12-04T19:25:54.227Z,101982.91
2018-12-04T19:28:01.686Z,101984.55
2018-12-04T19:30:10.992Z,101991.22
2018-12-04T19:32:18.828Z,102000.02
2018-12-04T19:34:26.414Z,101996.27
2018-12-04T19:36:34.111Z,102004.55
2018-12-04T19:38:42.270Z,102002.75
2018-12-04T19:40:49.813Z,102004.55
2018-12-04T19:42:57.457Z,102008.30
2018-12-04T19:45:05.027Z,102012.84
2018-12-04T19:47:08.522Z,102020.98
2018-12-04T19:49:15.963Z,102030.11
2018-12-04T19:51:24.664Z,102037.58
2018-12-04T19:53:32.243Z,102037.92
2018-12-04T19:55:40.157Z,102036.62
2018-12-04T19:57:48.162Z,102038.08
2018-12-04T19:59:55.749Z,102036.29
2018-12-04T20:02:03.827Z,102043.59
2018-12-04T20:04:11.413Z,102050.61
2018-12-04T20:06:19.183Z,102042.63
2018-12-04T20:08:29.156Z,102058.58
2018-12-04T20:10:36.676Z,102056.95
2018-12-04T20:12:44.592Z,102054.16
2018-12-04T20:14:52.151Z,102060.34
2018-12-04T20:17:01.681Z,102064.59
2018-12-04T20:19:09.874Z,102063.78
2018-12-04T20:21:14.299Z,102072.38
2018-12-04T20:23:21.861Z,102078.88
2018-12-04T20:25:29.590Z,102086.69
2018-12-04T20:27:37.052Z,102090.29
2018-12-04T20:29:44.705Z,102087.67
2018-12-04T20:31:49.590Z,102090.27
2018-12-04T20:33:57.611Z,102086.33
2018-12-04T20:36:05.188Z,102085.03
2018-12-04T20:38:09.797Z,102087.00
2018-12-04T20:40:18.264Z,102088.46
2018-12-04T20:48:39.270Z,102112.36
2018-12-04T20:50:45.005Z,102108.13
2018-12-04T20:52:49.808Z,102116.41
2018-12-04T20:54:57.629Z,102114.63
2018-12-04T20:57:05.587Z,102128.09
2018-12-04T20:59:14.264Z,102123.88
2018-12-04T21:01:19.269Z,102129.57
2018-12-04T21:03:27.949Z,102129.89
2018-12-04T21:05:36.012Z,102134.42
2018-12-04T21:07:49.579Z,102134.72
2018-12-04T21:09:57.436Z,102140.06
2018-12-04T21:12:03.269Z,102136.50
2018-12-04T21:14:11.627Z,102141.50
2018-12-04T21:16:19.597Z,102148.04
2018-12-04T21:18:24.734Z,102141.19
2018-12-04T21:20:30.000Z,102143.77
2018-12-04T21:22:38.617Z,102146.67
2018-12-04T21:24:47.243Z,102156.93
2018-12-04T21:26:55.870Z,102160.64
2018-12-04T21:29:10.944Z,102167.42
2018-12-04T21:31:25.387Z,102175.42
2018-12-04T21:33:41.148Z,102178.84
2018-12-04T21:35:55.932Z,102178.63
2018-12-04T21:38:07.639Z,102182.20
2018-12-04T21:40:22.292Z,102191.16
2018-12-04T21:42:36.196Z,102194.90
2018-12-04T21:50:18.356Z,102202.25
2018-12-04T21:52:26.075Z,102204.05
2018-12-04T21:54:34.658Z,102218.31
2018-12-04T21:56:42.532Z,102216.23
2018-12-04T21:58:51.318Z,102219.64
2018-12-04T22:00:59.430Z,102225.83
2018-12-04T22:03:04.414Z,102226.65
2018-12-04T22:05:11.810Z,102230.86
2018-12-04T22:07:19.499Z,102231.34
2018-12-04T22:09:27.160Z,102234.74
2018-12-04T22:11:35.164Z,102232.94
2018-12-04T22:13:46.900Z,102231.84
2018-12-04T22:15:54.779Z,102233.94
2018-12-04T22:18:02.671Z,102238.98
2018-12-04T22:20:10.766Z,102238.51
2018-12-04T22:22:18.636Z,102239.47
2018-12-04T22:24:26.296Z,102238.35
2018-12-04T22:26:34.017Z,102245.30
2018-12-04T22:28:42.156Z,102246.30
2018-12-04T22:30:50.720Z,102254.10
2018-12-04T22:32:55.345Z,102255.88
2018-12-04T22:35:01.404Z,102253.72
2018-12-04T22:37:11.245Z,102256.34
2018-12-04T22:39:19.942Z,102254.75
2018-12-04T22:41:28.224Z,102260.09
2018-12-04T22:43:36.888Z,102254.23
2018-12-04T22:45:44.370Z,102250.48
2018-12-04T22:47:52.252Z,102254.20
2018-12-04T22:49:59.598Z,102246.75
2018-12-04T22:52:07.502Z,102256.95
2018-12-04T22:54:15.213Z,102255.98
2018-12-04T22:56:22.931Z,102253.59
2018-12-04T22:58:30.900Z,102251.14
2018-12-04T23:00:40.973Z,102257.33
2018-12-04T23:02:49.144Z,102255.53
2018-12-04T23:04:57.643Z,102254.39
2018-12-04T23:07:04.986Z,102250.78
2018-12-04T23:09:13.764Z,102258.12
2018-12-04T23:11:21.547Z,102256.32
2018-12-04T23:13:29.352Z,102255.02
2018-12-04T23:15:41.259Z,102260.72
2018-12-04T23:17:48.903Z,102265.42
2018-12-04T23:19:56.675Z,102264.26
2018-12-04T23:22:04.286Z,102264.77
2018-12-04T23:24:12.502Z,102265.77
2018-12-04T23:26:21.085Z,102270.45
2018-12-04T23:28:28.660Z,102265.26
2018-12-04T23:30:36.316Z,102270.41
2018-12-04T23:32:41.225Z,102266.19
2018-12-04T23:34:48.808Z,102273.84
2018-12-04T23:36:56.796Z,102268.47
2018-12-04T23:39:05.124Z,102270.87
2018-12-04T23:41:13.400Z,102272.00
2018-12-04T23:43:21.471Z,102278.19
2018-12-04T23:45:29.368Z,102286.03
2018-12-04T23:47:37.447Z,102279.34
2018-12-04T23:49:45.376Z,102281.16
2018-12-04T23:51:53.331Z,102283.75
2018-12-04T23:54:02.991Z,102283.22
2018-12-04T23:56:10.542Z,102289.26
2018-12-04T23:58:18.059Z,102285.82
